sensor_id;sensor_type;location;lat;lon;timestamp;temperature;humidity
51902;DHT22;37929;53.218;6.548;2022-09-09T00:06:32;15.40;99.90
51902;DHT22;37929;53.218;6.548;2022-09-09T00:09:19;15.40;99.90
51902;DHT22;37929;53.218;6.548;2022-09-09T00:11:52;15.30;99.90
51902;DHT22;37929;53.218;6.548;2022-09-09T00:14:25;15.30;99.90
51902;DHT22;37929;53.218;6.548;2022-09-09T00:17:02;15.30;99.90
51902;DHT22;37929;53.218;6.548;2022-09-09T00:19:47;15.30;99.90
51902;DHT22;37929;53.218;6.548;2022-09-09T00:22:17;15.30;99.90
51902;DHT22;37929;53.218;6.548;2022-09-09T00:24:46;15.30;99.90
51902;DHT22;37929;53.218;6.548;2022-09-09T00:27:40;15.20;99.90
51902;DHT22;37929;53.218;6.548;2022-09-09T00:30:31;15.20;99.90
51902;DHT22;37929;53.218;6.548;2022-09-09T00:33:03;15.20;99.90
51902;DHT22;37929;53.218;6.548;2022-09-09T00:35:46;15.10;99.90
51902;DHT22;37929;53.218;6.548;2022-09-09T00:38:24;15.10;99.90
51902;DHT22;37929;53.218;6.548;2022-09-09T00:40:55;15.10;99.90
51902;DHT22;37929;53.218;6.548;2022-09-09T00:43:32;15.00;99.90
51902;DHT22;37929;53.218;6.548;2022-09-09T00:48:39;15.00;99.90
51902;DHT22;37929;53.218;6.548;2022-09-09T00:51:23;14.90;99.90
51902;DHT22;37929;53.218;6.548;2022-09-09T00:56:38;14.90;99.90
51902;DHT22;37929;53.218;6.548;2022-09-09T01:01:43;14.80;99.90
51902;DHT22;37929;53.218;6.548;2022-09-09T01:04:14;14.70;99.90
51902;DHT22;37929;53.218;6.548;2022-09-09T01:06:43;14.80;99.90
51902;DHT22;37929;53.218;6.548;2022-09-09T01:09:33;14.70;99.90
51902;DHT22;37929;53.218;6.548;2022-09-09T01:14:49;14.80;99.90
51902;DHT22;37929;53.218;6.548;2022-09-09T01:17:21;14.70;99.90
51902;DHT22;37929;53.218;6.548;2022-09-09T01:28:16;14.70;99.90
51902;DHT22;37929;53.218;6.548;2022-09-09T01:30:44;14.60;99.90
51902;DHT22;37929;53.218;6.548;2022-09-09T01:33:15;14.60;99.90
51902;DHT22;37929;53.218;6.548;2022-09-09T01:36:13;14.60;99.90
51902;DHT22;37929;53.218;6.548;2022-09-09T01:38:42;14.60;99.90
51902;DHT22;37929;53.218;6.548;2022-09-09T01:41:08;14.60;99.90
51902;DHT22;37929;53.218;6.548;2022-09-09T01:43:34;14.50;99.90
51902;DHT22;37929;53.218;6.548;2022-09-09T01:46:01;14.50;99.90
51902;DHT22;37929;53.218;6.548;2022-09-09T01:48:28;14.50;99.90
51902;DHT22;37929;53.218;6.548;2022-09-09T01:50:55;14.50;99.90
51902;DHT22;37929;53.218;6.548;2022-09-09T01:53:21;14.50;99.90
51902;DHT22;37929;53.218;6.548;2022-09-09T02:01:35;14.50;99.90
51902;DHT22;37929;53.218;6.548;2022-09-09T02:04:20;14.50;99.90
51902;DHT22;37929;53.218;6.548;2022-09-09T02:06:48;14.40;99.90
51902;DHT22;37929;53.218;6.548;2022-09-09T02:09:18;14.40;99.90
51902;DHT22;37929;53.218;6.548;2022-09-09T02:11:47;14.40;99.90
51902;DHT22;37929;53.218;6.548;2022-09-09T02:14:17;14.40;99.90
51902;DHT22;37929;53.218;6.548;2022-09-09T02:16:48;14.50;99.90
51902;DHT22;37929;53.218;6.548;2022-09-09T02:21:56;14.50;99.90
51902;DHT22;37929;53.218;6.548;2022-09-09T02:24:23;14.40;99.90
51902;DHT22;37929;53.218;6.548;2022-09-09T02:26:52;14.40;99.90
51902;DHT22;37929;53.218;6.548;2022-09-09T02:29:25;14.50;99.90
51902;DHT22;37929;53.218;6.548;2022-09-09T02:31:53;14.40;99.90
51902;DHT22;37929;53.218;6.548;2022-09-09T02:34:23;14.40;99.90
51902;DHT22;37929;53.218;6.548;2022-09-09T02:36:50;14.40;99.90
51902;DHT22;37929;53.218;6.548;2022-09-09T02:39:18;14.40;99.90
51902;DHT22;37929;53.218;6.548;2022-09-09T02:41:44;14.40;99.90
51902;DHT22;37929;53.218;6.548;2022-09-09T02:44:15;14.30;99.90
51902;DHT22;37929;53.218;6.548;2022-09-09T02:55:47;14.40;99.90
51902;DHT22;37929;53.218;6.548;2022-09-09T02:58:17;14.40;99.90
51902;DHT22;37929;53.218;6.548;2022-09-09T03:00:47;14.40;99.90
51902;DHT22;37929;53.218;6.548;2022-09-09T03:03:14;14.40;99.90
51902;DHT22;37929;53.218;6.548;2022-09-09T03:05:41;14.40;99.90
51902;DHT22;37929;53.218;6.548;2022-09-09T03:08:07;14.40;99.90
51902;DHT22;37929;53.218;6.548;2022-09-09T03:10:33;14.30;99.90
51902;DHT22;37929;53.218;6.548;2022-09-09T03:13:00;14.40;99.90
51902;DHT22;37929;53.218;6.548;2022-09-09T03:15:26;14.40;99.90
51902;DHT22;37929;53.218;6.548;2022-09-09T03:17:57;14.40;99.90
51902;DHT22;37929;53.218;6.548;2022-09-09T03:20:27;14.40;99.90
51902;DHT22;37929;53.218;6.548;2022-09-09T03:22:54;14.40;99.90
51902;DHT22;37929;53.218;6.548;2022-09-09T03:25:20;14.40;99.90
51902;DHT22;37929;53.218;6.548;2022-09-09T03:27:47;14.40;99.90
51902;DHT22;37929;53.218;6.548;2022-09-09T03:30:13;14.40;99.90
51902;DHT22;37929;53.218;6.548;2022-09-09T03:32:39;14.40;99.90
51902;DHT22;37929;53.218;6.548;2022-09-09T03:35:05;14.40;99.90
51902;DHT22;37929;53.218;6.548;2022-09-09T03:37:31;14.40;99.90
51902;DHT22;37929;53.218;6.548;2022-09-09T03:39:57;14.40;99.90
51902;DHT22;37929;53.218;6.548;2022-09-09T03:42:23;14.40;99.90
51902;DHT22;37929;53.218;6.548;2022-09-09T03:44:48;14.40;99.90
51902;DHT22;37929;53.218;6.548;2022-09-09T03:47:18;14.40;99.90
51902;DHT22;37929;53.218;6.548;2022-09-09T03:49:45;14.40;99.90
51902;DHT22;37929;53.218;6.548;2022-09-09T03:52:11;14.50;99.90
51902;DHT22;37929;53.218;6.548;2022-09-09T03:54:37;14.50;99.90
51902;DHT22;37929;53.218;6.548;2022-09-09T03:57:03;14.50;99.90
51902;DHT22;37929;53.218;6.548;2022-09-09T03:59:30;14.50;99.90
51902;DHT22;37929;53.218;6.548;2022-09-09T04:01:55;14.60;99.90
51902;DHT22;37929;53.218;6.548;2022-09-09T04:04:22;14.60;99.90
51902;DHT22;37929;53.218;6.548;2022-09-09T04:06:48;14.60;99.90
51902;DHT22;37929;53.218;6.548;2022-09-09T04:09:14;14.70;99.90
51902;DHT22;37929;53.218;6.548;2022-09-09T04:11:40;14.70;99.90
51902;DHT22;37929;53.218;6.548;2022-09-09T04:14:06;14.70;99.90
51902;DHT22;37929;53.218;6.548;2022-09-09T04:16:35;14.80;99.90
51902;DHT22;37929;53.218;6.548;2022-09-09T04:19:03;14.80;99.90
51902;DHT22;37929;53.218;6.548;2022-09-09T04:21:30;14.80;99.90
51902;DHT22;37929;53.218;6.548;2022-09-09T04:23:56;14.90;99.90
51902;DHT22;37929;53.218;6.548;2022-09-09T04:26:22;14.80;99.90
51902;DHT22;37929;53.218;6.548;2022-09-09T04:28:48;14.80;99.90
51902;DHT22;37929;53.218;6.548;2022-09-09T04:31:17;14.90;99.90
51902;DHT22;37929;53.218;6.548;2022-09-09T04:33:44;14.90;99.90
51902;DHT22;37929;53.218;6.548;2022-09-09T04:36:10;14.80;99.90
51902;DHT22;37929;53.218;6.548;2022-09-09T04:38:36;14.90;99.90
51902;DHT22;37929;53.218;6.548;2022-09-09T04:41:02;14.80;99.90
51902;DHT22;37929;53.218;6.548;2022-09-09T04:43:27;14.80;99.90
51902;DHT22;37929;53.218;6.548;2022-09-09T04:45:54;14.90;99.90
51902;DHT22;37929;53.218;6.548;2022-09-09T04:48:20;14.90;99.90
51902;DHT22;37929;53.218;6.548;2022-09-09T04:50:57;14.90;99.90
51902;DHT22;37929;53.218;6.548;2022-09-09T04:53:23;14.90;99.90
51902;DHT22;37929;53.218;6.548;2022-09-09T04:55:49;14.90;99.90
51902;DHT22;37929;53.218;6.548;2022-09-09T04:58:14;14.90;99.90
51902;DHT22;37929;53.218;6.548;2022-09-09T05:00:40;14.80;99.90
51902;DHT22;37929;53.218;6.548;2022-09-09T05:03:07;14.90;99.90
51902;DHT22;37929;53.218;6.548;2022-09-09T05:05:34;14.90;99.90
51902;DHT22;37929;53.218;6.548;2022-09-09T05:08:01;14.80;99.90
51902;DHT22;37929;53.218;6.548;2022-09-09T05:10:28;14.90;99.90
51902;DHT22;37929;53.218;6.548;2022-09-09T05:12:54;14.80;99.90
51902;DHT22;37929;53.218;6.548;2022-09-09T05:15:20;14.90;99.90
51902;DHT22;37929;53.218;6.548;2022-09-09T05:17:46;14.80;99.90
51902;DHT22;37929;53.218;6.548;2022-09-09T05:20:12;14.80;99.90
51902;DHT22;37929;53.218;6.548;2022-09-09T05:22:38;14.90;99.90
51902;DHT22;37929;53.218;6.548;2022-09-09T05:25:04;14.80;99.90
51902;DHT22;37929;53.218;6.548;2022-09-09T05:27:29;14.80;99.90
51902;DHT22;37929;53.218;6.548;2022-09-09T05:29:57;14.80;99.90
51902;DHT22;37929;53.218;6.548;2022-09-09T05:32:23;14.80;99.90
51902;DHT22;37929;53.218;6.548;2022-09-09T05:34:49;14.80;99.90
51902;DHT22;37929;53.218;6.548;2022-09-09T05:37:15;14.80;99.90
51902;DHT22;37929;53.218;6.548;2022-09-09T05:39:42;14.80;99.90
51902;DHT22;37929;53.218;6.548;2022-09-09T05:42:07;14.80;99.90
51902;DHT22;37929;53.218;6.548;2022-09-09T05:44:33;14.70;99.90
51902;DHT22;37929;53.218;6.548;2022-09-09T05:47:01;14.80;99.90
51902;DHT22;37929;53.218;6.548;2022-09-09T05:49:27;14.70;99.90
51902;DHT22;37929;53.218;6.548;2022-09-09T05:51:53;14.80;99.90
51902;DHT22;37929;53.218;6.548;2022-09-09T05:54:19;14.80;99.90
51902;DHT22;37929;53.218;6.548;2022-09-09T05:56:45;14.80;99.90
51902;DHT22;37929;53.218;6.548;2022-09-09T05:59:11;14.80;99.90
51902;DHT22;37929;53.218;6.548;2022-09-09T06:01:38;14.80;99.90
51902;DHT22;37929;53.218;6.548;2022-09-09T06:04:07;14.80;99.90
51902;DHT22;37929;53.218;6.548;2022-09-09T06:06:36;14.80;99.90
51902;DHT22;37929;53.218;6.548;2022-09-09T06:09:03;14.90;99.90
51902;DHT22;37929;53.218;6.548;2022-09-09T06:11:33;14.80;99.90
51902;DHT22;37929;53.218;6.548;2022-09-09T06:13:59;14.80;99.90
51902;DHT22;37929;53.218;6.548;2022-09-09T06:16:27;14.80;99.90
51902;DHT22;37929;53.218;6.548;2022-09-09T06:18:57;14.80;99.90
51902;DHT22;37929;53.218;6.548;2022-09-09T06:21:29;14.80;99.90
51902;DHT22;37929;53.218;6.548;2022-09-09T06:23:55;14.90;99.90
51902;DHT22;37929;53.218;6.548;2022-09-09T06:26:23;14.90;99.90
51902;DHT22;37929;53.218;6.548;2022-09-09T06:28:52;14.90;99.90
51902;DHT22;37929;53.218;6.548;2022-09-09T06:31:21;14.90;99.90
51902;DHT22;37929;53.218;6.548;2022-09-09T06:33:49;14.90;99.90
51902;DHT22;37929;53.218;6.548;2022-09-09T06:36:19;14.90;99.90
51902;DHT22;37929;53.218;6.548;2022-09-09T06:38:45;14.80;99.90
51902;DHT22;37929;53.218;6.548;2022-09-09T06:41:13;14.90;99.90
51902;DHT22;37929;53.218;6.548;2022-09-09T06:43:39;15.20;99.90
51902;DHT22;37929;53.218;6.548;2022-09-09T06:46:16;14.90;99.90
51902;DHT22;37929;53.218;6.548;2022-09-09T06:48:44;15.00;99.90
51902;DHT22;37929;53.218;6.548;2022-09-09T06:51:14;14.90;99.90
51902;DHT22;37929;53.218;6.548;2022-09-09T06:53:42;15.00;99.90
51902;DHT22;37929;53.218;6.548;2022-09-09T06:58:37;15.00;99.90
51902;DHT22;37929;53.218;6.548;2022-09-09T07:01:06;15.00;99.90
51902;DHT22;37929;53.218;6.548;2022-09-09T07:03:32;15.00;99.90
51902;DHT22;37929;53.218;6.548;2022-09-09T07:05:59;15.00;99.90
51902;DHT22;37929;53.218;6.548;2022-09-09T07:08:25;15.10;99.90
51902;DHT22;37929;53.218;6.548;2022-09-09T07:10:52;15.10;99.90
51902;DHT22;37929;53.218;6.548;2022-09-09T07:13:26;15.10;99.90
51902;DHT22;37929;53.218;6.548;2022-09-09T07:15:52;15.10;99.90
51902;DHT22;37929;53.218;6.548;2022-09-09T07:18:19;15.20;99.90
51902;DHT22;37929;53.218;6.548;2022-09-09T07:20:55;15.20;99.90
51902;DHT22;37929;53.218;6.548;2022-09-09T07:23:24;15.20;99.90
51902;DHT22;37929;53.218;6.548;2022-09-09T07:25:51;15.10;99.90
51902;DHT22;37929;53.218;6.548;2022-09-09T07:28:21;15.20;99.90
51902;DHT22;37929;53.218;6.548;2022-09-09T07:30:59;15.30;99.90
51902;DHT22;37929;53.218;6.548;2022-09-09T07:33:27;15.30;99.90
51902;DHT22;37929;53.218;6.548;2022-09-09T07:36:09;15.20;99.90
51902;DHT22;37929;53.218;6.548;2022-09-09T07:38:47;15.30;99.90
51902;DHT22;37929;53.218;6.548;2022-09-09T07:41:22;15.30;99.90
51902;DHT22;37929;53.218;6.548;2022-09-09T07:43:49;15.30;99.90
51902;DHT22;37929;53.218;6.548;2022-09-09T07:46:17;15.40;99.90
51902;DHT22;37929;53.218;6.548;2022-09-09T07:48:50;15.40;99.90
51902;DHT22;37929;53.218;6.548;2022-09-09T07:51:22;15.50;99.90
51902;DHT22;37929;53.218;6.548;2022-09-09T07:53:51;15.60;99.90
51902;DHT22;37929;53.218;6.548;2022-09-09T07:56:18;15.60;99.90
51902;DHT22;37929;53.218;6.548;2022-09-09T07:58:47;15.60;99.90
51902;DHT22;37929;53.218;6.548;2022-09-09T08:01:16;15.60;99.90
51902;DHT22;37929;53.218;6.548;2022-09-09T08:03:47;15.70;99.90
51902;DHT22;37929;53.218;6.548;2022-09-09T08:06:17;15.70;99.90
51902;DHT22;37929;53.218;6.548;2022-09-09T08:08:42;15.80;99.90
51902;DHT22;37929;53.218;6.548;2022-09-09T08:11:13;15.80;99.90
51902;DHT22;37929;53.218;6.548;2022-09-09T08:13:41;15.90;99.90
51902;DHT22;37929;53.218;6.548;2022-09-09T08:16:25;16.00;99.90
51902;DHT22;37929;53.218;6.548;2022-09-09T08:18:51;15.90;99.90
51902;DHT22;37929;53.218;6.548;2022-09-09T08:21:21;16.00;99.90
51902;DHT22;37929;53.218;6.548;2022-09-09T08:23:47;16.00;99.90
51902;DHT22;37929;53.218;6.548;2022-09-09T08:26:19;16.10;99.90
51902;DHT22;37929;53.218;6.548;2022-09-09T08:28:48;16.10;99.90
51902;DHT22;37929;53.218;6.548;2022-09-09T08:31:18;16.20;99.90
51902;DHT22;37929;53.218;6.548;2022-09-09T08:33:45;16.20;99.90
51902;DHT22;37929;53.218;6.548;2022-09-09T08:36:19;16.30;99.90
51902;DHT22;37929;53.218;6.548;2022-09-09T08:38:52;16.40;99.90
51902;DHT22;37929;53.218;6.548;2022-09-09T08:41:50;16.50;99.90
51902;DHT22;37929;53.218;6.548;2022-09-09T08:44:42;16.60;99.90
51902;DHT22;37929;53.218;6.548;2022-09-09T09:03:50;16.90;99.90
51902;DHT22;37929;53.218;6.548;2022-09-09T09:06:35;16.90;99.90
51902;DHT22;37929;53.218;6.548;2022-09-09T09:11:57;17.00;99.90
51902;DHT22;37929;53.218;6.548;2022-09-09T09:14:29;17.00;99.90
51902;DHT22;37929;53.218;6.548;2022-09-09T09:17:05;17.00;99.90
51902;DHT22;37929;53.218;6.548;2022-09-09T09:19:35;17.10;99.90
51902;DHT22;37929;53.218;6.548;2022-09-09T09:22:06;17.10;99.90
51902;DHT22;37929;53.218;6.548;2022-09-09T09:24:52;17.10;99.90
51902;DHT22;37929;53.218;6.548;2022-09-09T09:28:13;17.20;99.90
51902;DHT22;37929;53.218;6.548;2022-09-09T09:31:09;17.20;99.90
51902;DHT22;37929;53.218;6.548;2022-09-09T09:33:53;17.20;99.90
51902;DHT22;37929;53.218;6.548;2022-09-09T09:36:34;17.30;99.90
51902;DHT22;37929;53.218;6.548;2022-09-09T09:39:02;17.40;99.90
51902;DHT22;37929;53.218;6.548;2022-09-09T09:41:41;17.40;99.90
51902;DHT22;37929;53.218;6.548;2022-09-09T09:44:29;17.50;99.90
51902;DHT22;37929;53.218;6.548;2022-09-09T09:47:10;17.60;99.90
51902;DHT22;37929;53.218;6.548;2022-09-09T09:49:36;17.60;99.90
51902;DHT22;37929;53.218;6.548;2022-09-09T09:52:06;17.60;99.90
51902;DHT22;37929;53.218;6.548;2022-09-09T09:54:38;17.80;99.90
51902;DHT22;37929;53.218;6.548;2022-09-09T09:57:15;17.70;99.90
51902;DHT22;37929;53.218;6.548;2022-09-09T09:59:42;17.80;99.90
51902;DHT22;37929;53.218;6.548;2022-09-09T10:02:19;17.80;99.90
51902;DHT22;37929;53.218;6.548;2022-09-09T10:04:45;17.90;99.90
51902;DHT22;37929;53.218;6.548;2022-09-09T10:07:13;17.90;99.90
51902;DHT22;37929;53.218;6.548;2022-09-09T10:09:42;17.90;99.90
51902;DHT22;37929;53.218;6.548;2022-09-09T10:15:20;17.90;99.90
51902;DHT22;37929;53.218;6.548;2022-09-09T10:34:59;18.00;99.90
51902;DHT22;37929;53.218;6.548;2022-09-09T10:42:45;18.10;99.90
51902;DHT22;37929;53.218;6.548;2022-09-09T10:45:18;18.10;99.90
51902;DHT22;37929;53.218;6.548;2022-09-09T10:47:59;18.20;99.90
51902;DHT22;37929;53.218;6.548;2022-09-09T10:56:16;18.20;99.90
51902;DHT22;37929;53.218;6.548;2022-09-09T11:01:25;18.20;99.90
51902;DHT22;37929;53.218;6.548;2022-09-09T11:04:04;18.40;99.90
51902;DHT22;37929;53.218;6.548;2022-09-09T11:06:42;18.50;99.90
51902;DHT22;37929;53.218;6.548;2022-09-09T11:09:20;18.60;99.90
51902;DHT22;37929;53.218;6.548;2022-09-09T11:11:55;18.70;99.90
51902;DHT22;37929;53.218;6.548;2022-09-09T11:17:18;19.00;99.90
51902;DHT22;37929;53.218;6.548;2022-09-09T11:19:46;19.00;99.90
51902;DHT22;37929;53.218;6.548;2022-09-09T11:22:36;19.10;99.90
51902;DHT22;37929;53.218;6.548;2022-09-09T11:25:25;19.10;99.90
51902;DHT22;37929;53.218;6.548;2022-09-09T11:41:44;19.60;99.90
51902;DHT22;37929;53.218;6.548;2022-09-09T11:44:19;19.60;99.90
51902;DHT22;37929;53.218;6.548;2022-09-09T11:46:51;19.50;99.90
51902;DHT22;37929;53.218;6.548;2022-09-09T11:49:43;19.50;99.90
51902;DHT22;37929;53.218;6.548;2022-09-09T11:52:44;19.50;99.90
51902;DHT22;37929;53.218;6.548;2022-09-09T11:55:28;19.50;99.90
51902;DHT22;37929;53.218;6.548;2022-09-09T12:00:45;19.50;99.90
51902;DHT22;37929;53.218;6.548;2022-09-09T12:08:45;19.40;99.90
51902;DHT22;37929;53.218;6.548;2022-09-09T12:11:12;19.40;99.90
51902;DHT22;37929;53.218;6.548;2022-09-09T12:13:54;19.30;99.90
51902;DHT22;37929;53.218;6.548;2022-09-09T12:16:34;19.30;99.90
51902;DHT22;37929;53.218;6.548;2022-09-09T12:21:40;19.30;99.90
51902;DHT22;37929;53.218;6.548;2022-09-09T12:24:13;19.20;99.90
51902;DHT22;37929;53.218;6.548;2022-09-09T12:27:02;19.20;99.90
51902;DHT22;37929;53.218;6.548;2022-09-09T12:29:58;19.30;99.90
51902;DHT22;37929;53.218;6.548;2022-09-09T12:32:27;19.30;99.90
51902;DHT22;37929;53.218;6.548;2022-09-09T12:35:43;19.30;99.90
51902;DHT22;37929;53.218;6.548;2022-09-09T12:38:05;19.30;99.90
51902;DHT22;37929;53.218;6.548;2022-09-09T12:40:34;19.30;99.90
51902;DHT22;37929;53.218;6.548;2022-09-09T12:43:20;19.30;99.90
51902;DHT22;37929;53.218;6.548;2022-09-09T12:45:47;19.30;99.90
51902;DHT22;37929;53.218;6.548;2022-09-09T12:48:18;19.30;99.90
51902;DHT22;37929;53.218;6.548;2022-09-09T12:50:51;19.40;99.90
51902;DHT22;37929;53.218;6.548;2022-09-09T12:53:32;19.50;99.90
51902;DHT22;37929;53.218;6.548;2022-09-09T12:56:05;19.50;99.90
51902;DHT22;37929;53.218;6.548;2022-09-09T12:58:51;19.50;99.90
51902;DHT22;37929;53.218;6.548;2022-09-09T13:01:30;19.50;99.90
51902;DHT22;37929;53.218;6.548;2022-09-09T13:03:56;19.50;99.90
51902;DHT22;37929;53.218;6.548;2022-09-09T13:06:30;19.60;99.90
51902;DHT22;37929;53.218;6.548;2022-09-09T13:09:00;19.70;99.90
51902;DHT22;37929;53.218;6.548;2022-09-09T13:11:41;19.80;99.90
51902;DHT22;37929;53.218;6.548;2022-09-09T13:14:16;19.90;99.90
51902;DHT22;37929;53.218;6.548;2022-09-09T13:16:58;20.00;99.90
51902;DHT22;37929;53.218;6.548;2022-09-09T13:19:24;20.00;99.90
51902;DHT22;37929;53.218;6.548;2022-09-09T13:21:54;20.00;99.90
51902;DHT22;37929;53.218;6.548;2022-09-09T13:24:33;19.90;99.90
51902;DHT22;37929;53.218;6.548;2022-09-09T13:27:03;19.90;99.90
51902;DHT22;37929;53.218;6.548;2022-09-09T13:29:30;20.00;99.90
51902;DHT22;37929;53.218;6.548;2022-09-09T13:32:15;19.90;99.90
51902;DHT22;37929;53.218;6.548;2022-09-09T13:34:51;19.90;99.90
51902;DHT22;37929;53.218;6.548;2022-09-09T13:37:37;19.80;99.90
51902;DHT22;37929;53.218;6.548;2022-09-09T13:40:05;19.70;99.90
51902;DHT22;37929;53.218;6.548;2022-09-09T13:42:34;19.70;99.90
51902;DHT22;37929;53.218;6.548;2022-09-09T13:45:03;19.70;99.90
51902;DHT22;37929;53.218;6.548;2022-09-09T13:47:34;19.70;99.90
51902;DHT22;37929;53.218;6.548;2022-09-09T13:50:19;19.60;99.90
51902;DHT22;37929;53.218;6.548;2022-09-09T13:52:53;19.60;99.90
51902;DHT22;37929;53.218;6.548;2022-09-09T13:55:21;19.60;99.90
51902;DHT22;37929;53.218;6.548;2022-09-09T13:58:01;19.60;99.90
51902;DHT22;37929;53.218;6.548;2022-09-09T14:00:33;19.60;99.90
51902;DHT22;37929;53.218;6.548;2022-09-09T14:02:59;19.70;99.90
51902;DHT22;37929;53.218;6.548;2022-09-09T14:05:29;19.80;99.90
51902;DHT22;37929;53.218;6.548;2022-09-09T14:07:57;19.90;99.90
51902;DHT22;37929;53.218;6.548;2022-09-09T14:10:23;20.00;99.90
51902;DHT22;37929;53.218;6.548;2022-09-09T14:12:49;20.10;99.90
51902;DHT22;37929;53.218;6.548;2022-09-09T14:15:15;20.20;99.90
51902;DHT22;37929;53.218;6.548;2022-09-09T14:17:41;20.20;99.90
51902;DHT22;37929;53.218;6.548;2022-09-09T14:20:09;20.10;99.90
51902;DHT22;37929;53.218;6.548;2022-09-09T14:22:37;20.10;99.90
51902;DHT22;37929;53.218;6.548;2022-09-09T14:25:05;20.00;99.90
51902;DHT22;37929;53.218;6.548;2022-09-09T14:27:31;19.90;99.90
51902;DHT22;37929;53.218;6.548;2022-09-09T14:29:58;19.90;99.90
51902;DHT22;37929;53.218;6.548;2022-09-09T14:32:25;19.90;99.90
51902;DHT22;37929;53.218;6.548;2022-09-09T14:34:51;19.90;99.90
51902;DHT22;37929;53.218;6.548;2022-09-09T14:37:18;19.90;99.90
51902;DHT22;37929;53.218;6.548;2022-09-09T14:39:44;19.90;99.90
51902;DHT22;37929;53.218;6.548;2022-09-09T14:42:13;19.80;99.90
51902;DHT22;37929;53.218;6.548;2022-09-09T14:44:39;19.70;99.90
51902;DHT22;37929;53.218;6.548;2022-09-09T14:47:06;19.50;99.90
51902;DHT22;37929;53.218;6.548;2022-09-09T14:49:36;19.40;99.90
51902;DHT22;37929;53.218;6.548;2022-09-09T14:52:03;19.30;99.90
51902;DHT22;37929;53.218;6.548;2022-09-09T14:54:29;19.30;99.90
51902;DHT22;37929;53.218;6.548;2022-09-09T14:56:55;19.10;99.90
51902;DHT22;37929;53.218;6.548;2022-09-09T14:59:22;19.10;99.90
51902;DHT22;37929;53.218;6.548;2022-09-09T15:01:48;18.90;99.90
51902;DHT22;37929;53.218;6.548;2022-09-09T15:04:14;18.90;99.90
51902;DHT22;37929;53.218;6.548;2022-09-09T15:06:43;18.80;99.90
51902;DHT22;37929;53.218;6.548;2022-09-09T15:09:14;18.80;99.90
51902;DHT22;37929;53.218;6.548;2022-09-09T15:11:40;18.80;99.90
51902;DHT22;37929;53.218;6.548;2022-09-09T15:14:07;18.80;99.90
51902;DHT22;37929;53.218;6.548;2022-09-09T15:16:33;18.80;99.90
51902;DHT22;37929;53.218;6.548;2022-09-09T15:19:00;18.90;99.90
51902;DHT22;37929;53.218;6.548;2022-09-09T15:21:29;18.90;99.90
51902;DHT22;37929;53.218;6.548;2022-09-09T15:23:56;19.00;99.90
51902;DHT22;37929;53.218;6.548;2022-09-09T15:26:23;19.00;99.90
51902;DHT22;37929;53.218;6.548;2022-09-09T15:28:49;19.00;99.90
51902;DHT22;37929;53.218;6.548;2022-09-09T15:31:20;19.10;99.90
51902;DHT22;37929;53.218;6.548;2022-09-09T15:33:49;19.10;99.90
51902;DHT22;37929;53.218;6.548;2022-09-09T15:36:32;19.20;99.90
51902;DHT22;37929;53.218;6.548;2022-09-09T15:38:59;19.10;99.90
51902;DHT22;37929;53.218;6.548;2022-09-09T15:41:26;19.10;99.90
51902;DHT22;37929;53.218;6.548;2022-09-09T15:43:54;19.10;99.90
51902;DHT22;37929;53.218;6.548;2022-09-09T15:46:26;19.00;99.90
51902;DHT22;37929;53.218;6.548;2022-09-09T15:49:07;19.00;99.90
51902;DHT22;37929;53.218;6.548;2022-09-09T15:51:35;19.10;99.90
51902;DHT22;37929;53.218;6.548;2022-09-09T15:54:01;19.10;99.90
51902;DHT22;37929;53.218;6.548;2022-09-09T15:56:28;19.10;99.90
51902;DHT22;37929;53.218;6.548;2022-09-09T15:58:56;19.10;99.90
51902;DHT22;37929;53.218;6.548;2022-09-09T16:01:23;19.20;99.90
51902;DHT22;37929;53.218;6.548;2022-09-09T16:03:49;19.20;99.90
51902;DHT22;37929;53.218;6.548;2022-09-09T16:06:21;19.10;99.90
51902;DHT22;37929;53.218;6.548;2022-09-09T16:08:49;19.20;99.90
51902;DHT22;37929;53.218;6.548;2022-09-09T16:11:23;19.10;99.90
51902;DHT22;37929;53.218;6.548;2022-09-09T16:13:51;19.10;99.90
51902;DHT22;37929;53.218;6.548;2022-09-09T16:16:19;19.10;99.90
51902;DHT22;37929;53.218;6.548;2022-09-09T16:18:50;19.00;99.90
51902;DHT22;37929;53.218;6.548;2022-09-09T16:21:23;19.00;99.90
51902;DHT22;37929;53.218;6.548;2022-09-09T16:23:55;19.00;99.90
51902;DHT22;37929;53.218;6.548;2022-09-09T16:26:22;18.90;99.90
51902;DHT22;37929;53.218;6.548;2022-09-09T16:28:48;18.90;99.90
51902;DHT22;37929;53.218;6.548;2022-09-09T16:31:17;18.90;99.90
51902;DHT22;37929;53.218;6.548;2022-09-09T16:33:43;18.90;99.90
51902;DHT22;37929;53.218;6.548;2022-09-09T16:36:11;18.80;99.90
51902;DHT22;37929;53.218;6.548;2022-09-09T16:38:38;18.80;99.90
51902;DHT22;37929;53.218;6.548;2022-09-09T16:41:05;18.80;99.90
51902;DHT22;37929;53.218;6.548;2022-09-09T16:43:35;18.80;99.90
51902;DHT22;37929;53.218;6.548;2022-09-09T16:46:12;18.80;99.90
51902;DHT22;37929;53.218;6.548;2022-09-09T16:48:39;18.80;99.90
51902;DHT22;37929;53.218;6.548;2022-09-09T16:53:40;18.80;99.90
51902;DHT22;37929;53.218;6.548;2022-09-09T16:56:09;18.70;99.90
51902;DHT22;37929;53.218;6.548;2022-09-09T16:58:35;18.70;99.90
51902;DHT22;37929;53.218;6.548;2022-09-09T17:01:02;18.60;99.90
51902;DHT22;37929;53.218;6.548;2022-09-09T17:03:29;18.60;99.90
51902;DHT22;37929;53.218;6.548;2022-09-09T17:05:55;18.60;99.90
51902;DHT22;37929;53.218;6.548;2022-09-09T17:08:24;18.50;99.90
51902;DHT22;37929;53.218;6.548;2022-09-09T17:10:49;18.60;99.90
51902;DHT22;37929;53.218;6.548;2022-09-09T17:13:16;18.50;99.90
51902;DHT22;37929;53.218;6.548;2022-09-09T17:15:45;18.50;99.90
51902;DHT22;37929;53.218;6.548;2022-09-09T17:18:11;18.50;99.90
51902;DHT22;37929;53.218;6.548;2022-09-09T17:20:38;18.40;99.90
51902;DHT22;37929;53.218;6.548;2022-09-09T17:23:05;18.30;99.90
51902;DHT22;37929;53.218;6.548;2022-09-09T17:25:31;18.30;99.90
51902;DHT22;37929;53.218;6.548;2022-09-09T17:27:58;18.20;99.90
51902;DHT22;37929;53.218;6.548;2022-09-09T17:30:25;18.10;99.90
51902;DHT22;37929;53.218;6.548;2022-09-09T17:32:51;18.10;99.90
51902;DHT22;37929;53.218;6.548;2022-09-09T17:35:17;18.10;99.90
51902;DHT22;37929;53.218;6.548;2022-09-09T17:37:43;18.10;99.90
51902;DHT22;37929;53.218;6.548;2022-09-09T17:40:11;18.10;99.90
51902;DHT22;37929;53.218;6.548;2022-09-09T17:42:36;18.10;99.90
51902;DHT22;37929;53.218;6.548;2022-09-09T17:45:03;18.00;99.90
51902;DHT22;37929;53.218;6.548;2022-09-09T17:47:29;18.00;99.90
51902;DHT22;37929;53.218;6.548;2022-09-09T17:49:56;18.00;99.90
51902;DHT22;37929;53.218;6.548;2022-09-09T17:52:22;18.00;99.90
51902;DHT22;37929;53.218;6.548;2022-09-09T17:54:48;18.00;99.90
51902;DHT22;37929;53.218;6.548;2022-09-09T17:57:15;17.90;99.90
51902;DHT22;37929;53.218;6.548;2022-09-09T17:59:42;18.00;99.90